Morning Lady — 3FKC3 — position and weather

sailwx.info

Track history (hours):
 
Tides and Currents Weather Stations Pressure Air Temp Water Temp Dewpoint Dewpoint Depression Visibility Wind Speed Wind Dir Waves Ship Positions

Morning Lady

Last reported at 2017-Aug-11 16:58 UTC. Time now 2017-Aug-17 11:45 UTC.
Position N 31°22' E 032°20'.

Length 234 m; draft 9.9 m.

Type: Cargo ship. MMSI: 356473000.

Date/timePositionNaut miles runAvg speedWind from/ knotsBaromVisibWave heightAir tempDewpointWater temp
2017-Aug-11 16:58N 31°22' E 032°20'0 0.0
2017-Aug-11 16:28N 31°22' E 032°20'0 0.0
2017-Aug-11 15:58N 31°22' E 032°20'0 0.9
2017-Aug-11 15:30N 31°22' E 032°21'4 8.4
2017-Aug-11 15:00N 31°26' E 032°19'1615.7
2017-Aug-11 14:00N 31°37' E 032°06'  
2017-Aug-09 09:00N 35°58' E 016°31'815.6
2017-Aug-09 08:30N 36°00' E 016°22'814.9
2017-Aug-09 08:00N 36°02' E 016°13'1415.6
2017-Aug-09 07:08N 36°06' E 015°57'215.4
2017-Aug-09 07:00N 36°06' E 015°55'815.5
2017-Aug-09 06:30N 36°09' E 015°45'914.9
2017-Aug-09 05:53N 36°11' E 015°35'815.1
2017-Aug-09 05:21N 36°12' E 015°24'1115.4
2017-Aug-09 04:39N 36°15' E 015°11'315.7
2017-Aug-09 04:26N 36°16' E 015°08'716.0
2017-Aug-09 04:00N 36°18' E 014°60'816.1
2017-Aug-09 03:30N 36°21' E 014°50'815.9
2017-Aug-09 03:00N 36°23' E 014°41'815.7
2017-Aug-09 02:30N 36°25' E 014°31'815.7
2017-Aug-09 02:00N 36°28' E 014°22'815.6
2017-Aug-09 01:30N 36°30' E 014°13'815.5
2017-Aug-09 01:00N 36°32' E 014°03'815.5
2017-Aug-09 00:30N 36°34' E 013°54'815.5
2017-Aug-09 00:00N 36°36' E 013°45'815.4
2017-Aug-08 23:31N 36°38' E 013°36'815.6
2017-Aug-08 23:00N 36°40' E 013°26'815.6
2017-Aug-08 22:30N 36°42' E 013°17'815.3
2017-Aug-08 22:00N 36°44' E 013°08'815.5
2017-Aug-08 21:30N 36°47' E 012°59'815.5
2017-Aug-08 21:00N 36°49' E 012°49'815.3
2017-Aug-08 20:31N 36°51' E 012°40'815.5
2017-Aug-08 20:01N 36°53' E 012°31'815.6
2017-Aug-08 19:31N 36°55' E 012°21'815.6
2017-Aug-08 19:00N 36°57' E 012°12'815.4
2017-Aug-08 18:30N 36°59' E 012°03'815.6
2017-Aug-08 18:00N 37°03' E 011°54'815.5
2017-Aug-08 17:30N 37°07' E 011°45'815.5
2017-Aug-08 17:00N 37°10' E 011°37'815.5
2017-Aug-08 16:30N 37°14' E 011°28'815.5
2017-Aug-08 16:00N 37°16' E 011°19'815.5
2017-Aug-08 15:30N 37°21' E 011°11'815.6
2017-Aug-08 14:59N 37°24' E 011°02'815.5
2017-Aug-08 14:30N 37°27' E 010°53'715.2
2017-Aug-08 14:00N 37°29' E 010°44'815.3
2017-Aug-08 13:30N 37°30' E 010°34'815.6
2017-Aug-08 13:00N 37°32' E 010°25'815.8
2017-Aug-08 12:30N 37°34' E 010°15'815.9
2017-Aug-08 12:01N 37°34' E 010°05'915.8
2017-Aug-08 11:28N 37°34' E 009°54'715.9
2017-Aug-08 11:00N 37°32' E 009°45'815.2
2017-Aug-08 10:30N 37°30' E 009°36'815.1
2017-Aug-08 10:00N 37°28' E 009°27'815.2
2017-Aug-08 09:30N 37°26' E 009°18'815.1
2017-Aug-08 09:00N 37°25' E 009°08'715.1
2017-Aug-08 08:30N 37°23' E 008°59'815.3
2017-Aug-08 08:00N 37°21' E 008°50'815.4
2017-Aug-08 07:29N 37°19' E 008°40'2315.3
2017-Aug-08 05:57N 37°19' E 008°10'8215.4
2017-Aug-08 00:38N 37°20' E 006°28'215.4
2017-Aug-08 00:29N 37°20' E 006°25'1015.7
2017-Aug-07 23:52N 37°19' E 006°13'715.6
2017-Aug-07 23:27N 37°19' E 006°05'10515.4
2017-Aug-07 16:39N 37°07' E 003°54'315.4
2017-Aug-07 16:27N 37°07' E 003°50'715.3
2017-Aug-07 16:00N 37°06' E 003°41'815.3
2017-Aug-07 15:30N 37°05' E 003°32'1715.3
2017-Aug-07 14:22N 37°02' E 003°10'515.3
2017-Aug-07 14:01N 37°01' E 003°04'1015.3
2017-Aug-07 13:23N 36°59' E 002°52'615.4
2017-Aug-07 12:59N 36°58' E 002°44'915.4
2017-Aug-07 12:25N 36°57' E 002°33'1615.4
2017-Aug-07 11:23N 36°53' E 002°14'1815.4
2017-Aug-07 10:12N 36°49' E 001°52'415.3
2017-Aug-07 09:57N 36°49' E 001°47'2515.3
2017-Aug-07 08:19N 36°44' E 001°16'515.4
2017-Aug-07 08:00N 36°44' E 001°10'1015.1
2017-Aug-07 07:19N 36°42' E 000°58'615.1
2017-Aug-07 06:57N 36°41' E 000°51'815.4
2017-Aug-07 06:25N 36°40' E 000°41'615.6
2017-Aug-07 06:00N 36°38' E 000°33'815.4
2017-Aug-07 05:30N 36°36' E 000°24'915.4
2017-Aug-07 04:55N 36°35' E 000°13'1915.5
2017-Aug-07 03:41N 36°31' W 000°11'615.2
2017-Aug-07 03:17N 36°30' W 000°18'615.2
2017-Aug-07 02:54N 36°29' W 000°25'615.3
2017-Aug-07 02:30N 36°28' W 000°33'715.2
2017-Aug-07 02:00N 36°26' W 000°42'815.7
2017-Aug-07 01:30N 36°25' W 000°51'1315.7
2017-Aug-07 00:41N 36°22' W 001°07'515.6
2017-Aug-07 00:23N 36°22' W 001°13'4615.7
2017-Aug-06 21:26N 36°13' W 002°09'1716.0
2017-Aug-06 20:22N 36°11' W 002°30'615.7
2017-Aug-06 20:00N 36°11' W 002°37'815.5
2017-Aug-06 19:30N 36°10' W 002°47'814.9
2017-Aug-06 19:00N 36°09' W 002°56'10315.8
2017-Aug-06 12:31N 36°01' W 005°03'016.4
2017-Aug-06 12:30N 36°01' W 005°03'816.5
2017-Aug-06 12:00N 36°00' W 005°13'816.6
2017-Aug-06 11:31N 35°59' W 005°23'6214.9
2017-Aug-06 07:22N 35°58' W 006°40'615.6
2017-Aug-06 07:00N 35°60' W 006°46'1015.5
2017-Aug-06 06:23N 36°02' W 006°58'715.4
2017-Aug-06 05:56N 36°03' W 007°06'715.3
2017-Aug-06 05:28N 36°05' W 007°15'715.3
2017-Aug-06 05:00N 36°08' W 007°23'1415.4
2017-Aug-06 04:08N 36°12' W 007°39'515.1
2017-Aug-06 03:50N 36°13' W 007°44'715.5
2017-Aug-06 03:24N 36°15' W 007°52'715.5
2017-Aug-06 02:58N 36°16' W 008°00'815.4
2017-Aug-06 02:29N 36°18' W 008°09'816.1
2017-Aug-06 02:00N 36°20' W 008°19'816.1
2017-Aug-06 01:29N 36°23' W 008°28'816.0
2017-Aug-06 00:59N 36°25' W 008°38'815.8
2017-Aug-06 00:30N 36°27' W 008°47'815.9
2017-Aug-06 00:00N 36°29' W 008°57'815.8
2017-Aug-05 23:30N 36°31' W 009°06'915.5
2017-Aug-05 22:56N 36°34' W 009°17'614.6
2017-Aug-05 22:30N 36°38' W 009°22'715.0
2017-Aug-05 22:00N 36°44' W 009°29'714.8
2017-Aug-05 21:30N 36°50' W 009°34'815.4
2017-Aug-05 21:00N 36°57' W 009°36'815.2
2017-Aug-05 20:30N 37°04' W 009°38'815.1
2017-Aug-05 20:00N 37°12' W 009°40'815.0
2017-Aug-05 19:30N 37°19' W 009°42'815.4
2017-Aug-05 19:00N 37°27' W 009°44'815.6
2017-Aug-05 18:30N 37°34' W 009°46'815.6
2017-Aug-05 18:00N 37°42' W 009°48'815.7
2017-Aug-05 17:30N 37°50' W 009°49'815.6
2017-Aug-05 17:00N 37°57' W 009°52'815.6
2017-Aug-05 16:30N 38°05' W 009°55'815.4
2017-Aug-05 16:00N 38°12' W 009°57'815.1
2017-Aug-05 15:30N 38°20' W 009°59'815.5
2017-Aug-05 15:00N 38°27' W 010°01'815.5
2017-Aug-05 14:30N 38°35' W 010°03'815.3
2017-Aug-05 14:00N 38°42' W 010°05'815.4
2017-Aug-05 13:30N 38°50' W 010°06'815.5
2017-Aug-05 13:00N 38°58' W 010°06'815.5
2017-Aug-05 12:30N 39°06' W 010°06'815.5
2017-Aug-05 12:00N 39°13' W 010°06'815.6
2017-Aug-05 11:30N 39°21' W 010°07'815.6
2017-Aug-05 11:00N 39°29' W 010°08'1115.5
2017-Aug-05 10:19N 39°39' W 010°08'515.6
2017-Aug-05 10:00N 39°45' W 010°08'815.5
2017-Aug-05 09:30N 39°52' W 010°08'915.3
2017-Aug-05 08:54N 40°01' W 010°08'615.4
2017-Aug-05 08:30N 40°08' W 010°08'815.2
2017-Aug-05 08:00N 40°15' W 010°07'715.2
2017-Aug-05 07:30N 40°23' W 010°06'816.1
2017-Aug-05 07:00N 40°31' W 010°06'1017.2
2017-Aug-05 06:27N 40°40' W 010°06'54014.4
2017-Aug-03 16:51N 49°05' W 005°35'7113.2
2017-Aug-03 11:25N 49°37' W 003°58'614.7
2017-Aug-03 11:01N 49°40' W 003°50'815.0
2017-Aug-03 10:30N 49°44' W 003°40'815.7
2017-Aug-03 10:01N 49°48' W 003°29'815.7
2017-Aug-03 09:30N 49°52' W 003°19'815.8
2017-Aug-03 09:01N 49°55' W 003°08'815.7
2017-Aug-03 08:30N 49°58' W 002°56'815.4
2017-Aug-03 08:01N 50°00' W 002°45'3114.5
2017-Aug-03 05:52N 50°13' W 002°01'4013.5
2017-Aug-03 02:54N 50°32' W 001°06'614.0
2017-Aug-03 02:30N 50°35' W 000°59'5 9.9
2017-Aug-03 02:00N 50°40' W 000°56'713.7
2017-Aug-03 01:31N 50°44' W 001°05'816.2
2017-Aug-03 01:00N 50°46' W 001°17'5 9.3
2017-Aug-03 00:31N 50°51' W 001°20'4 7.3
2017-Aug-03 00:01N 50°53' W 001°24'0 0.4
2017-Aug-02 23:24N 50°54' W 001°24'0 0.0
2017-Aug-02 23:00N 50°54' W 001°24'0 0.0
2017-Aug-02 22:30N 50°54' W 001°24'0 0.0
2017-Aug-02 21:57N 50°54' W 001°24'0 0.0
2017-Aug-02 21:27N 50°54' W 001°24'0 0.0
2017-Aug-02 20:51N 50°54' W 001°24'0 0.0
2017-Aug-02 20:18N 50°54' W 001°24'0 0.0
2017-Aug-02 19:51N 50°54' W 001°24'0 0.0
2017-Aug-02 19:30N 50°54' W 001°24'0 0.0
2017-Aug-02 18:27N 50°54' W 001°24'0 0.0
2017-Aug-02 17:42N 50°54' W 001°24'0 0.0
2017-Aug-02 14:57N 50°54' W 001°24'0 0.0
2017-Aug-02 13:30N 50°54' W 001°24'0 0.0
2017-Aug-02 12:57N 50°54' W 001°24'0 0.0
2017-Aug-02 11:54N 50°54' W 001°24'0 0.0
2017-Aug-02 11:30N 50°54' W 001°24'0 0.0
2017-Aug-02 11:00N 50°54' W 001°24'0 0.0
2017-Aug-02 10:30N 50°54' W 001°24'0 0.0
2017-Aug-02 10:00N 50°54' W 001°24'1 1.9
2017-Aug-02 09:27N 50°53' W 001°23'4 8.5
2017-Aug-02 09:00N 50°50' W 001°19'4 7.9
2017-Aug-02 08:31N 50°46' W 001°16'815.9
2017-Aug-02 08:00N 50°44' W 001°04'713.1
2017-Aug-02 07:30N 50°40' W 000°56'4 7.7
2017-Aug-02 07:00N 50°37' W 000°52'5 9.4
2017-Aug-02 06:30N 50°34' W 000°46'510.3
2017-Aug-02 06:00N 50°34' W 000°38'713.8
2017-Aug-02 05:30N 50°33' W 000°27'714.1
2017-Aug-02 05:00N 50°32' W 000°16'714.1
2017-Aug-02 04:30N 50°32' W 000°05'713.9
2017-Aug-02 04:00N 50°33' E 000°05'713.6
2017-Aug-02 03:30N 50°35' E 000°16'713.7
2017-Aug-02 03:00N 50°36' E 000°27'714.2
2017-Aug-02 02:30N 50°39' E 000°37'1014.9
2017-Aug-02 01:50N 50°45' E 000°50'  
Track history (hours):
 
Tides and Currents Weather Stations Pressure Air Temp Water Temp Dewpoint Dewpoint Depression Visibility Wind Speed Wind Dir Waves Ship Positions

Morning Lady

Last reported at 2017-Aug-11 16:58 UTC. Time now 2017-Aug-17 11:45 UTC.
Position N 31°22' E 032°20'.

Length 234 m; draft 9.9 m.

Type: Cargo ship. MMSI: 356473000.

Date/timePositionNaut miles runAvg speedWind from/ knotsBaromVisibWave heightAir tempDewpointWater temp
2017-Aug-11 16:58N 31°22' E 032°20'0 0.0
2017-Aug-11 16:28N 31°22' E 032°20'0 0.0
2017-Aug-11 15:58N 31°22' E 032°20'0 0.9
2017-Aug-11 15:30N 31°22' E 032°21'4 8.4
2017-Aug-11 15:00N 31°26' E 032°19'1615.7
2017-Aug-11 14:00N 31°37' E 032°06'  
2017-Aug-09 09:00N 35°58' E 016°31'815.6
2017-Aug-09 08:30N 36°00' E 016°22'814.9
2017-Aug-09 08:00N 36°02' E 016°13'1415.6
2017-Aug-09 07:08N 36°06' E 015°57'215.4
2017-Aug-09 07:00N 36°06' E 015°55'815.5
2017-Aug-09 06:30N 36°09' E 015°45'914.9
2017-Aug-09 05:53N 36°11' E 015°35'815.1
2017-Aug-09 05:21N 36°12' E 015°24'1115.4
2017-Aug-09 04:39N 36°15' E 015°11'315.7
2017-Aug-09 04:26N 36°16' E 015°08'716.0
2017-Aug-09 04:00N 36°18' E 014°60'816.1
2017-Aug-09 03:30N 36°21' E 014°50'815.9
2017-Aug-09 03:00N 36°23' E 014°41'815.7
2017-Aug-09 02:30N 36°25' E 014°31'815.7
2017-Aug-09 02:00N 36°28' E 014°22'815.6
2017-Aug-09 01:30N 36°30' E 014°13'815.5
2017-Aug-09 01:00N 36°32' E 014°03'815.5
2017-Aug-09 00:30N 36°34' E 013°54'815.5
2017-Aug-09 00:00N 36°36' E 013°45'815.4
2017-Aug-08 23:31N 36°38' E 013°36'815.6
2017-Aug-08 23:00N 36°40' E 013°26'815.6
2017-Aug-08 22:30N 36°42' E 013°17'815.3
2017-Aug-08 22:00N 36°44' E 013°08'815.5
2017-Aug-08 21:30N 36°47' E 012°59'815.5
2017-Aug-08 21:00N 36°49' E 012°49'815.3
2017-Aug-08 20:31N 36°51' E 012°40'815.5
2017-Aug-08 20:01N 36°53' E 012°31'815.6
2017-Aug-08 19:31N 36°55' E 012°21'815.6
2017-Aug-08 19:00N 36°57' E 012°12'815.4
2017-Aug-08 18:30N 36°59' E 012°03'815.6
2017-Aug-08 18:00N 37°03' E 011°54'815.5
2017-Aug-08 17:30N 37°07' E 011°45'815.5
2017-Aug-08 17:00N 37°10' E 011°37'815.5
2017-Aug-08 16:30N 37°14' E 011°28'815.5
2017-Aug-08 16:00N 37°16' E 011°19'815.5
2017-Aug-08 15:30N 37°21' E 011°11'815.6
2017-Aug-08 14:59N 37°24' E 011°02'815.5
2017-Aug-08 14:30N 37°27' E 010°53'715.2
2017-Aug-08 14:00N 37°29' E 010°44'815.3
2017-Aug-08 13:30N 37°30' E 010°34'815.6
2017-Aug-08 13:00N 37°32' E 010°25'815.8
2017-Aug-08 12:30N 37°34' E 010°15'815.9
2017-Aug-08 12:01N 37°34' E 010°05'915.8
2017-Aug-08 11:28N 37°34' E 009°54'715.9
2017-Aug-08 11:00N 37°32' E 009°45'815.2
2017-Aug-08 10:30N 37°30' E 009°36'815.1
2017-Aug-08 10:00N 37°28' E 009°27'815.2
2017-Aug-08 09:30N 37°26' E 009°18'815.1
2017-Aug-08 09:00N 37°25' E 009°08'715.1
2017-Aug-08 08:30N 37°23' E 008°59'815.3
2017-Aug-08 08:00N 37°21' E 008°50'815.4
2017-Aug-08 07:29N 37°19' E 008°40'2315.3
2017-Aug-08 05:57N 37°19' E 008°10'8215.4
2017-Aug-08 00:38N 37°20' E 006°28'215.4
2017-Aug-08 00:29N 37°20' E 006°25'1015.7
2017-Aug-07 23:52N 37°19' E 006°13'715.6
2017-Aug-07 23:27N 37°19' E 006°05'10515.4
2017-Aug-07 16:39N 37°07' E 003°54'315.4
2017-Aug-07 16:27N 37°07' E 003°50'715.3
2017-Aug-07 16:00N 37°06' E 003°41'815.3
2017-Aug-07 15:30N 37°05' E 003°32'1715.3
2017-Aug-07 14:22N 37°02' E 003°10'515.3
2017-Aug-07 14:01N 37°01' E 003°04'1015.3
2017-Aug-07 13:23N 36°59' E 002°52'615.4
2017-Aug-07 12:59N 36°58' E 002°44'915.4
2017-Aug-07 12:25N 36°57' E 002°33'1615.4
2017-Aug-07 11:23N 36°53' E 002°14'1815.4
2017-Aug-07 10:12N 36°49' E 001°52'415.3
2017-Aug-07 09:57N 36°49' E 001°47'2515.3
2017-Aug-07 08:19N 36°44' E 001°16'515.4
2017-Aug-07 08:00N 36°44' E 001°10'1015.1
2017-Aug-07 07:19N 36°42' E 000°58'615.1
2017-Aug-07 06:57N 36°41' E 000°51'815.4
2017-Aug-07 06:25N 36°40' E 000°41'615.6
2017-Aug-07 06:00N 36°38' E 000°33'815.4
2017-Aug-07 05:30N 36°36' E 000°24'915.4
2017-Aug-07 04:55N 36°35' E 000°13'1915.5
2017-Aug-07 03:41N 36°31' W 000°11'615.2
2017-Aug-07 03:17N 36°30' W 000°18'615.2
2017-Aug-07 02:54N 36°29' W 000°25'615.3
2017-Aug-07 02:30N 36°28' W 000°33'715.2
2017-Aug-07 02:00N 36°26' W 000°42'815.7
2017-Aug-07 01:30N 36°25' W 000°51'1315.7
2017-Aug-07 00:41N 36°22' W 001°07'515.6
2017-Aug-07 00:23N 36°22' W 001°13'4615.7
2017-Aug-06 21:26N 36°13' W 002°09'1716.0
2017-Aug-06 20:22N 36°11' W 002°30'615.7
2017-Aug-06 20:00N 36°11' W 002°37'815.5
2017-Aug-06 19:30N 36°10' W 002°47'814.9
2017-Aug-06 19:00N 36°09' W 002°56'10315.8
2017-Aug-06 12:31N 36°01' W 005°03'016.4
2017-Aug-06 12:30N 36°01' W 005°03'816.5
2017-Aug-06 12:00N 36°00' W 005°13'816.6
2017-Aug-06 11:31N 35°59' W 005°23'6214.9
2017-Aug-06 07:22N 35°58' W 006°40'615.6
2017-Aug-06 07:00N 35°60' W 006°46'1015.5
2017-Aug-06 06:23N 36°02' W 006°58'715.4
2017-Aug-06 05:56N 36°03' W 007°06'715.3
2017-Aug-06 05:28N 36°05' W 007°15'715.3
2017-Aug-06 05:00N 36°08' W 007°23'1415.4
2017-Aug-06 04:08N 36°12' W 007°39'515.1
2017-Aug-06 03:50N 36°13' W 007°44'715.5
2017-Aug-06 03:24N 36°15' W 007°52'715.5
2017-Aug-06 02:58N 36°16' W 008°00'815.4
2017-Aug-06 02:29N 36°18' W 008°09'816.1
2017-Aug-06 02:00N 36°20' W 008°19'816.1
2017-Aug-06 01:29N 36°23' W 008°28'816.0
2017-Aug-06 00:59N 36°25' W 008°38'815.8
2017-Aug-06 00:30N 36°27' W 008°47'815.9
2017-Aug-06 00:00N 36°29' W 008°57'815.8
2017-Aug-05 23:30N 36°31' W 009°06'915.5
2017-Aug-05 22:56N 36°34' W 009°17'614.6
2017-Aug-05 22:30N 36°38' W 009°22'715.0
2017-Aug-05 22:00N 36°44' W 009°29'714.8
2017-Aug-05 21:30N 36°50' W 009°34'815.4
2017-Aug-05 21:00N 36°57' W 009°36'815.2
2017-Aug-05 20:30N 37°04' W 009°38'815.1
2017-Aug-05 20:00N 37°12' W 009°40'815.0
2017-Aug-05 19:30N 37°19' W 009°42'815.4
2017-Aug-05 19:00N 37°27' W 009°44'815.6
2017-Aug-05 18:30N 37°34' W 009°46'815.6
2017-Aug-05 18:00N 37°42' W 009°48'815.7
2017-Aug-05 17:30N 37°50' W 009°49'815.6
2017-Aug-05 17:00N 37°57' W 009°52'815.6
2017-Aug-05 16:30N 38°05' W 009°55'815.4
2017-Aug-05 16:00N 38°12' W 009°57'815.1
2017-Aug-05 15:30N 38°20' W 009°59'815.5
2017-Aug-05 15:00N 38°27' W 010°01'815.5
2017-Aug-05 14:30N 38°35' W 010°03'815.3
2017-Aug-05 14:00N 38°42' W 010°05'815.4
2017-Aug-05 13:30N 38°50' W 010°06'815.5
2017-Aug-05 13:00N 38°58' W 010°06'815.5
2017-Aug-05 12:30N 39°06' W 010°06'815.5
2017-Aug-05 12:00N 39°13' W 010°06'815.6
2017-Aug-05 11:30N 39°21' W 010°07'815.6
2017-Aug-05 11:00N 39°29' W 010°08'1115.5
2017-Aug-05 10:19N 39°39' W 010°08'515.6
2017-Aug-05 10:00N 39°45' W 010°08'815.5
2017-Aug-05 09:30N 39°52' W 010°08'915.3
2017-Aug-05 08:54N 40°01' W 010°08'615.4
2017-Aug-05 08:30N 40°08' W 010°08'815.2
2017-Aug-05 08:00N 40°15' W 010°07'715.2
2017-Aug-05 07:30N 40°23' W 010°06'816.1
2017-Aug-05 07:00N 40°31' W 010°06'1017.2
2017-Aug-05 06:27N 40°40' W 010°06'54014.4
2017-Aug-03 16:51N 49°05' W 005°35'7113.2
2017-Aug-03 11:25N 49°37' W 003°58'614.7
2017-Aug-03 11:01N 49°40' W 003°50'815.0
2017-Aug-03 10:30N 49°44' W 003°40'815.7
2017-Aug-03 10:01N 49°48' W 003°29'815.7
2017-Aug-03 09:30N 49°52' W 003°19'815.8
2017-Aug-03 09:01N 49°55' W 003°08'815.7
2017-Aug-03 08:30N 49°58' W 002°56'815.4
2017-Aug-03 08:01N 50°00' W 002°45'3114.5
2017-Aug-03 05:52N 50°13' W 002°01'4013.5
2017-Aug-03 02:54N 50°32' W 001°06'614.0
2017-Aug-03 02:30N 50°35' W 000°59'5 9.9
2017-Aug-03 02:00N 50°40' W 000°56'713.7
2017-Aug-03 01:31N 50°44' W 001°05'816.2
2017-Aug-03 01:00N 50°46' W 001°17'5 9.3
2017-Aug-03 00:31N 50°51' W 001°20'4 7.3
2017-Aug-03 00:01N 50°53' W 001°24'0 0.4
2017-Aug-02 23:24N 50°54' W 001°24'0 0.0
2017-Aug-02 23:00N 50°54' W 001°24'0 0.0
2017-Aug-02 22:30N 50°54' W 001°24'0 0.0
2017-Aug-02 21:57N 50°54' W 001°24'0 0.0
2017-Aug-02 21:27N 50°54' W 001°24'0 0.0
2017-Aug-02 20:51N 50°54' W 001°24'0 0.0
2017-Aug-02 20:18N 50°54' W 001°24'0 0.0
2017-Aug-02 19:51N 50°54' W 001°24'0 0.0
2017-Aug-02 19:30N 50°54' W 001°24'0 0.0
2017-Aug-02 18:27N 50°54' W 001°24'0 0.0
2017-Aug-02 17:42N 50°54' W 001°24'0 0.0
2017-Aug-02 14:57N 50°54' W 001°24'0 0.0
2017-Aug-02 13:30N 50°54' W 001°24'0 0.0
2017-Aug-02 12:57N 50°54' W 001°24'0 0.0
2017-Aug-02 11:54N 50°54' W 001°24'0 0.0
2017-Aug-02 11:30N 50°54' W 001°24'0 0.0
2017-Aug-02 11:00N 50°54' W 001°24'0 0.0
2017-Aug-02 10:30N 50°54' W 001°24'0 0.0
2017-Aug-02 10:00N 50°54' W 001°24'1 1.9
2017-Aug-02 09:27N 50°53' W 001°23'4 8.5
2017-Aug-02 09:00N 50°50' W 001°19'4 7.9
2017-Aug-02 08:31N 50°46' W 001°16'815.9
2017-Aug-02 08:00N 50°44' W 001°04'713.1
2017-Aug-02 07:30N 50°40' W 000°56'4 7.7
2017-Aug-02 07:00N 50°37' W 000°52'5 9.4
2017-Aug-02 06:30N 50°34' W 000°46'510.3
2017-Aug-02 06:00N 50°34' W 000°38'713.8
2017-Aug-02 05:30N 50°33' W 000°27'714.1
2017-Aug-02 05:00N 50°32' W 000°16'714.1
2017-Aug-02 04:30N 50°32' W 000°05'713.9
2017-Aug-02 04:00N 50°33' E 000°05'713.6
2017-Aug-02 03:30N 50°35' E 000°16'713.7
2017-Aug-02 03:00N 50°36' E 000°27'714.2
2017-Aug-02 02:30N 50°39' E 000°37'1014.9
2017-Aug-02 01:50N 50°45' E 000°50'  

Dump ship's entire track history